sensor_id;sensor_type;location;lat;lon;timestamp;P1;durP1;ratioP1;P2;durP2;ratioP2
67053;SDS011;53960;51.826;5.850;2024-01-10T00:01:29;8.97;;;2.17;;
67053;SDS011;53960;51.826;5.850;2024-01-10T00:03:54;7.20;;;2.00;;
67053;SDS011;53960;51.826;5.850;2024-01-10T00:06:20;8.37;;;2.60;;
67053;SDS011;53960;51.826;5.850;2024-01-10T00:08:45;7.87;;;2.40;;
67053;SDS011;53960;51.826;5.850;2024-01-10T00:11:11;7.93;;;2.08;;
67053;SDS011;53960;51.826;5.850;2024-01-10T00:13:36;7.03;;;2.07;;
67053;SDS011;53960;51.826;5.850;2024-01-10T00:16:02;9.77;;;2.33;;
67053;SDS011;53960;51.826;5.850;2024-01-10T00:18:27;8.47;;;2.27;;
67053;SDS011;53960;51.826;5.850;2024-01-10T00:20:52;7.03;;;2.37;;
67053;SDS011;53960;51.826;5.850;2024-01-10T00:23:19;8.63;;;2.30;;
67053;SDS011;53960;51.826;5.850;2024-01-10T00:25:44;7.80;;;2.50;;
67053;SDS011;53960;51.826;5.850;2024-01-10T00:28:10;5.83;;;2.00;;
67053;SDS011;53960;51.826;5.850;2024-01-10T00:30:35;7.78;;;2.10;;
67053;SDS011;53960;51.826;5.850;2024-01-10T00:33:01;8.60;;;2.70;;
67053;SDS011;53960;51.826;5.850;2024-01-10T00:35:26;7.93;;;2.60;;
67053;SDS011;53960;51.826;5.850;2024-01-10T00:37:51;7.07;;;2.53;;
67053;SDS011;53960;51.826;5.850;2024-01-10T00:40:17;9.50;;;2.80;;
67053;SDS011;53960;51.826;5.850;2024-01-10T00:42:42;8.57;;;2.13;;
67053;SDS011;53960;51.826;5.850;2024-01-10T00:45:07;6.67;;;2.40;;
67053;SDS011;53960;51.826;5.850;2024-01-10T00:47:33;8.75;;;2.67;;
67053;SDS011;53960;51.826;5.850;2024-01-10T00:49:58;6.23;;;1.53;;
67053;SDS011;53960;51.826;5.850;2024-01-10T00:52:24;8.67;;;2.07;;
67053;SDS011;53960;51.826;5.850;2024-01-10T00:54:49;10.10;;;2.80;;
67053;SDS011;53960;51.826;5.850;2024-01-10T00:57:14;9.80;;;2.93;;
67053;SDS011;53960;51.826;5.850;2024-01-10T00:59:40;7.43;;;2.47;;
67053;SDS011;53960;51.826;5.850;2024-01-10T01:02:05;6.88;;;2.00;;
67053;SDS011;53960;51.826;5.850;2024-01-10T01:04:31;6.47;;;2.37;;
67053;SDS011;53960;51.826;5.850;2024-01-10T01:06:56;9.13;;;2.30;;
67053;SDS011;53960;51.826;5.850;2024-01-10T01:09:21;7.83;;;1.97;;
67053;SDS011;53960;51.826;5.850;2024-01-10T01:11:47;5.78;;;1.90;;
67053;SDS011;53960;51.826;5.850;2024-01-10T01:14:12;7.17;;;2.00;;
67053;SDS011;53960;51.826;5.850;2024-01-10T01:16:37;8.43;;;2.83;;
67053;SDS011;53960;51.826;5.850;2024-01-10T01:19:03;6.70;;;1.80;;
67053;SDS011;53960;51.826;5.850;2024-01-10T01:21:28;9.87;;;2.50;;
67053;SDS011;53960;51.826;5.850;2024-01-10T01:23:54;9.67;;;2.47;;
67053;SDS011;53960;51.826;5.850;2024-01-10T01:26:19;8.68;;;2.20;;
67053;SDS011;53960;51.826;5.850;2024-01-10T01:28:45;8.40;;;2.77;;
67053;SDS011;53960;51.826;5.850;2024-01-10T01:31:10;8.00;;;2.60;;
67053;SDS011;53960;51.826;5.850;2024-01-10T01:33:35;8.43;;;2.63;;
67053;SDS011;53960;51.826;5.850;2024-01-10T01:36:01;7.70;;;2.35;;
67053;SDS011;53960;51.826;5.850;2024-01-10T01:38:26;9.93;;;2.93;;
67053;SDS011;53960;51.826;5.850;2024-01-10T01:40:52;8.03;;;2.37;;
67053;SDS011;53960;51.826;5.850;2024-01-10T01:43:21;8.23;;;1.87;;
67053;SDS011;53960;51.826;5.850;2024-01-10T01:45:48;7.57;;;2.20;;
67053;SDS011;53960;51.826;5.850;2024-01-10T01:48:16;7.43;;;2.58;;
67053;SDS011;53960;51.826;5.850;2024-01-10T01:50:42;9.90;;;2.70;;
67053;SDS011;53960;51.826;5.850;2024-01-10T01:53:08;7.15;;;2.30;;
67053;SDS011;53960;51.826;5.850;2024-01-10T01:55:33;8.63;;;2.57;;
67053;SDS011;53960;51.826;5.850;2024-01-10T01:57:59;9.27;;;2.23;;
67053;SDS011;53960;51.826;5.850;2024-01-10T02:00:24;8.67;;;2.43;;
67053;SDS011;53960;51.826;5.850;2024-01-10T02:02:50;8.40;;;2.45;;
67053;SDS011;53960;51.826;5.850;2024-01-10T02:05:17;8.38;;;2.33;;
67053;SDS011;53960;51.826;5.850;2024-01-10T02:07:42;6.90;;;2.20;;
67053;SDS011;53960;51.826;5.850;2024-01-10T02:10:07;7.80;;;2.60;;
67053;SDS011;53960;51.826;5.850;2024-01-10T02:12:33;7.53;;;2.57;;
67053;SDS011;53960;51.826;5.850;2024-01-10T02:14:59;8.35;;;2.22;;
67053;SDS011;53960;51.826;5.850;2024-01-10T02:17:24;8.47;;;3.03;;
67053;SDS011;53960;51.826;5.850;2024-01-10T02:19:50;10.13;;;2.87;;
67053;SDS011;53960;51.826;5.850;2024-01-10T02:22:32;9.20;;;2.30;;
67053;SDS011;53960;51.826;5.850;2024-01-10T02:24:58;8.67;;;2.97;;
67053;SDS011;53960;51.826;5.850;2024-01-10T02:27:23;7.95;;;2.72;;
67053;SDS011;53960;51.826;5.850;2024-01-10T02:29:49;9.13;;;2.70;;
67053;SDS011;53960;51.826;5.850;2024-01-10T02:32:15;9.05;;;2.70;;
67053;SDS011;53960;51.826;5.850;2024-01-10T02:34:43;7.82;;;2.60;;
67053;SDS011;53960;51.826;5.850;2024-01-10T02:37:09;9.80;;;3.20;;
67053;SDS011;53960;51.826;5.850;2024-01-10T02:39:34;7.57;;;2.40;;
67053;SDS011;53960;51.826;5.850;2024-01-10T02:41:59;8.57;;;2.40;;
67053;SDS011;53960;51.826;5.850;2024-01-10T02:44:24;10.07;;;2.67;;
67053;SDS011;53960;51.826;5.850;2024-01-10T02:46:50;8.53;;;2.77;;
67053;SDS011;53960;51.826;5.850;2024-01-10T02:49:15;7.20;;;2.20;;
67053;SDS011;53960;51.826;5.850;2024-01-10T02:51:41;8.43;;;2.10;;
67053;SDS011;53960;51.826;5.850;2024-01-10T02:54:06;10.13;;;2.70;;
67053;SDS011;53960;51.826;5.850;2024-01-10T02:56:31;9.73;;;2.63;;
67053;SDS011;53960;51.826;5.850;2024-01-10T02:58:57;8.13;;;2.20;;
67053;SDS011;53960;51.826;5.850;2024-01-10T03:01:22;9.17;;;3.07;;
67053;SDS011;53960;51.826;5.850;2024-01-10T03:03:47;10.23;;;3.23;;
67053;SDS011;53960;51.826;5.850;2024-01-10T03:06:13;9.93;;;3.10;;
67053;SDS011;53960;51.826;5.850;2024-01-10T03:08:38;8.80;;;2.97;;
67053;SDS011;53960;51.826;5.850;2024-01-10T03:11:03;8.33;;;2.40;;
67053;SDS011;53960;51.826;5.850;2024-01-10T03:13:29;7.40;;;2.17;;
67053;SDS011;53960;51.826;5.850;2024-01-10T03:15:54;6.80;;;1.97;;
67053;SDS011;53960;51.826;5.850;2024-01-10T03:18:19;8.50;;;2.93;;
67053;SDS011;53960;51.826;5.850;2024-01-10T03:20:45;8.40;;;2.67;;
67053;SDS011;53960;51.826;5.850;2024-01-10T03:23:10;11.18;;;2.78;;
67053;SDS011;53960;51.826;5.850;2024-01-10T03:25:35;7.73;;;2.53;;
67053;SDS011;53960;51.826;5.850;2024-01-10T03:28:01;10.00;;;2.90;;
67053;SDS011;53960;51.826;5.850;2024-01-10T03:30:26;8.87;;;2.77;;
67053;SDS011;53960;51.826;5.850;2024-01-10T03:32:51;10.67;;;2.87;;
67053;SDS011;53960;51.826;5.850;2024-01-10T03:35:17;7.83;;;2.80;;
67053;SDS011;53960;51.826;5.850;2024-01-10T03:37:42;10.40;;;2.80;;
67053;SDS011;53960;51.826;5.850;2024-01-10T03:40:08;9.35;;;2.70;;
67053;SDS011;53960;51.826;5.850;2024-01-10T03:42:33;9.63;;;2.57;;
67053;SDS011;53960;51.826;5.850;2024-01-10T03:44:58;9.53;;;2.73;;
67053;SDS011;53960;51.826;5.850;2024-01-10T03:47:24;8.03;;;2.50;;
67053;SDS011;53960;51.826;5.850;2024-01-10T03:49:49;10.67;;;3.10;;
67053;SDS011;53960;51.826;5.850;2024-01-10T03:52:14;7.10;;;2.07;;
67053;SDS011;53960;51.826;5.850;2024-01-10T03:54:40;7.40;;;2.53;;
67053;SDS011;53960;51.826;5.850;2024-01-10T03:57:05;8.40;;;2.50;;
67053;SDS011;53960;51.826;5.850;2024-01-10T03:59:31;7.20;;;2.50;;
67053;SDS011;53960;51.826;5.850;2024-01-10T04:01:57;6.65;;;2.20;;
67053;SDS011;53960;51.826;5.850;2024-01-10T04:04:25;7.47;;;2.17;;
67053;SDS011;53960;51.826;5.850;2024-01-10T04:06:50;10.10;;;2.73;;
67053;SDS011;53960;51.826;5.850;2024-01-10T04:09:16;7.53;;;2.50;;
67053;SDS011;53960;51.826;5.850;2024-01-10T04:11:41;7.83;;;2.73;;
67053;SDS011;53960;51.826;5.850;2024-01-10T04:14:06;9.27;;;2.87;;
67053;SDS011;53960;51.826;5.850;2024-01-10T04:16:32;7.90;;;2.67;;
67053;SDS011;53960;51.826;5.850;2024-01-10T04:18:57;8.90;;;2.60;;
67053;SDS011;53960;51.826;5.850;2024-01-10T04:21:22;7.80;;;2.17;;
67053;SDS011;53960;51.826;5.850;2024-01-10T04:23:47;9.27;;;2.73;;
67053;SDS011;53960;51.826;5.850;2024-01-10T04:26:13;9.10;;;2.73;;
67053;SDS011;53960;51.826;5.850;2024-01-10T04:28:38;8.63;;;2.30;;
67053;SDS011;53960;51.826;5.850;2024-01-10T04:31:06;8.65;;;2.40;;
67053;SDS011;53960;51.826;5.850;2024-01-10T04:33:31;8.60;;;2.70;;
67053;SDS011;53960;51.826;5.850;2024-01-10T04:35:56;12.27;;;3.23;;
67053;SDS011;53960;51.826;5.850;2024-01-10T04:38:22;7.77;;;2.70;;
67053;SDS011;53960;51.826;5.850;2024-01-10T04:40:51;8.40;;;2.60;;
67053;SDS011;53960;51.826;5.850;2024-01-10T04:43:16;8.30;;;2.53;;
67053;SDS011;53960;51.826;5.850;2024-01-10T04:45:41;7.53;;;2.40;;
67053;SDS011;53960;51.826;5.850;2024-01-10T04:48:06;9.70;;;2.30;;
67053;SDS011;53960;51.826;5.850;2024-01-10T04:50:32;8.48;;;2.47;;
67053;SDS011;53960;51.826;5.850;2024-01-10T04:52:57;8.70;;;2.90;;
67053;SDS011;53960;51.826;5.850;2024-01-10T04:55:22;5.70;;;1.70;;
67053;SDS011;53960;51.826;5.850;2024-01-10T04:57:48;7.03;;;1.97;;
67053;SDS011;53960;51.826;5.850;2024-01-10T05:00:13;9.37;;;3.10;;
67053;SDS011;53960;51.826;5.850;2024-01-10T05:02:39;6.40;;;2.17;;
67053;SDS011;53960;51.826;5.850;2024-01-10T05:05:04;7.40;;;2.50;;
67053;SDS011;53960;51.826;5.850;2024-01-10T05:07:30;9.77;;;3.03;;
67053;SDS011;53960;51.826;5.850;2024-01-10T05:09:55;6.37;;;2.10;;
67053;SDS011;53960;51.826;5.850;2024-01-10T05:12:21;8.27;;;2.60;;
67053;SDS011;53960;51.826;5.850;2024-01-10T05:14:46;9.83;;;2.83;;
67053;SDS011;53960;51.826;5.850;2024-01-10T05:17:11;8.10;;;3.00;;
67053;SDS011;53960;51.826;5.850;2024-01-10T05:19:37;9.90;;;2.80;;
67053;SDS011;53960;51.826;5.850;2024-01-10T05:22:02;8.87;;;2.67;;
67053;SDS011;53960;51.826;5.850;2024-01-10T05:24:27;4.63;;;1.57;;
67053;SDS011;53960;51.826;5.850;2024-01-10T05:26:53;7.20;;;2.23;;
67053;SDS011;53960;51.826;5.850;2024-01-10T05:29:18;6.00;;;2.07;;
67053;SDS011;53960;51.826;5.850;2024-01-10T05:31:44;7.03;;;1.98;;
67053;SDS011;53960;51.826;5.850;2024-01-10T05:34:11;9.03;;;2.33;;
67053;SDS011;53960;51.826;5.850;2024-01-10T05:36:36;7.20;;;2.10;;
67053;SDS011;53960;51.826;5.850;2024-01-10T05:39:02;7.97;;;3.00;;
67053;SDS011;53960;51.826;5.850;2024-01-10T05:41:27;5.77;;;1.80;;
67053;SDS011;53960;51.826;5.850;2024-01-10T05:43:52;8.20;;;2.60;;
67053;SDS011;53960;51.826;5.850;2024-01-10T05:46:17;8.57;;;2.90;;
67053;SDS011;53960;51.826;5.850;2024-01-10T05:48:44;8.15;;;2.30;;
67053;SDS011;53960;51.826;5.850;2024-01-10T05:51:11;9.40;;;3.25;;
67053;SDS011;53960;51.826;5.850;2024-01-10T05:53:37;10.83;;;3.27;;
67053;SDS011;53960;51.826;5.850;2024-01-10T05:56:02;9.30;;;2.77;;
67053;SDS011;53960;51.826;5.850;2024-01-10T05:58:28;9.82;;;3.13;;
67053;SDS011;53960;51.826;5.850;2024-01-10T06:00:53;9.93;;;2.90;;
67053;SDS011;53960;51.826;5.850;2024-01-10T06:03:20;9.15;;;3.13;;
67053;SDS011;53960;51.826;5.850;2024-01-10T06:05:45;10.10;;;2.70;;
67053;SDS011;53960;51.826;5.850;2024-01-10T06:08:10;8.77;;;3.10;;
67053;SDS011;53960;51.826;5.850;2024-01-10T06:10:36;10.35;;;3.60;;
67053;SDS011;53960;51.826;5.850;2024-01-10T06:13:01;10.27;;;3.23;;
67053;SDS011;53960;51.826;5.850;2024-01-10T06:15:26;8.00;;;2.83;;
67053;SDS011;53960;51.826;5.850;2024-01-10T06:17:52;9.50;;;3.00;;
67053;SDS011;53960;51.826;5.850;2024-01-10T06:20:17;9.67;;;2.33;;
67053;SDS011;53960;51.826;5.850;2024-01-10T06:22:43;11.30;;;3.08;;
67053;SDS011;53960;51.826;5.850;2024-01-10T06:25:08;8.77;;;2.90;;
67053;SDS011;53960;51.826;5.850;2024-01-10T06:27:34;11.13;;;3.23;;
67053;SDS011;53960;51.826;5.850;2024-01-10T06:29:59;8.73;;;2.75;;
67053;SDS011;53960;51.826;5.850;2024-01-10T06:32:25;9.47;;;2.80;;
67053;SDS011;53960;51.826;5.850;2024-01-10T06:34:50;9.70;;;2.73;;
67053;SDS011;53960;51.826;5.850;2024-01-10T06:37:16;12.40;;;3.47;;
67053;SDS011;53960;51.826;5.850;2024-01-10T06:39:41;9.93;;;2.97;;
67053;SDS011;53960;51.826;5.850;2024-01-10T06:42:06;9.80;;;3.27;;
67053;SDS011;53960;51.826;5.850;2024-01-10T06:44:33;9.90;;;3.20;;
67053;SDS011;53960;51.826;5.850;2024-01-10T06:46:58;9.70;;;3.22;;
67053;SDS011;53960;51.826;5.850;2024-01-10T06:49:24;13.10;;;3.87;;
67053;SDS011;53960;51.826;5.850;2024-01-10T06:51:49;11.00;;;3.40;;
67053;SDS011;53960;51.826;5.850;2024-01-10T06:54:14;10.57;;;3.33;;
67053;SDS011;53960;51.826;5.850;2024-01-10T06:56:40;10.15;;;3.80;;
67053;SDS011;53960;51.826;5.850;2024-01-10T06:59:06;11.57;;;3.80;;
67053;SDS011;53960;51.826;5.850;2024-01-10T07:01:31;10.37;;;3.30;;
67053;SDS011;53960;51.826;5.850;2024-01-10T07:03:57;10.45;;;3.30;;
67053;SDS011;53960;51.826;5.850;2024-01-10T07:06:22;8.80;;;3.53;;
67053;SDS011;53960;51.826;5.850;2024-01-10T07:08:48;10.27;;;3.80;;
67053;SDS011;53960;51.826;5.850;2024-01-10T07:11:18;12.10;;;4.00;;
67053;SDS011;53960;51.826;5.850;2024-01-10T07:13:44;9.57;;;3.38;;
67053;SDS011;53960;51.826;5.850;2024-01-10T07:16:11;8.40;;;3.03;;
67053;SDS011;53960;51.826;5.850;2024-01-10T07:18:39;11.53;;;3.30;;
67053;SDS011;53960;51.826;5.850;2024-01-10T07:21:05;11.85;;;3.83;;
67053;SDS011;53960;51.826;5.850;2024-01-10T07:23:30;11.03;;;4.07;;
67053;SDS011;53960;51.826;5.850;2024-01-10T07:25:57;9.87;;;3.63;;
67053;SDS011;53960;51.826;5.850;2024-01-10T07:28:22;11.85;;;4.50;;
67053;SDS011;53960;51.826;5.850;2024-01-10T07:30:47;11.27;;;3.30;;
67053;SDS011;53960;51.826;5.850;2024-01-10T07:33:13;11.20;;;3.73;;
67053;SDS011;53960;51.826;5.850;2024-01-10T07:35:39;11.33;;;3.60;;
67053;SDS011;53960;51.826;5.850;2024-01-10T07:38:04;11.95;;;3.72;;
67053;SDS011;53960;51.826;5.850;2024-01-10T07:40:34;11.75;;;4.20;;
67053;SDS011;53960;51.826;5.850;2024-01-10T07:42:59;9.60;;;3.70;;
67053;SDS011;53960;51.826;5.850;2024-01-10T07:45:25;11.45;;;3.58;;
67053;SDS011;53960;51.826;5.850;2024-01-10T07:47:50;11.63;;;4.40;;
67053;SDS011;53960;51.826;5.850;2024-01-10T07:50:15;11.70;;;3.97;;
67053;SDS011;53960;51.826;5.850;2024-01-10T07:52:42;11.93;;;4.30;;
67053;SDS011;53960;51.826;5.850;2024-01-10T07:55:08;12.18;;;4.88;;
67053;SDS011;53960;51.826;5.850;2024-01-10T07:57:34;11.00;;;4.10;;
67053;SDS011;53960;51.826;5.850;2024-01-10T08:00:00;12.20;;;4.70;;
67053;SDS011;53960;51.826;5.850;2024-01-10T08:02:25;10.90;;;4.17;;
67053;SDS011;53960;51.826;5.850;2024-01-10T08:04:51;11.17;;;4.47;;
67053;SDS011;53960;51.826;5.850;2024-01-10T08:07:17;10.75;;;4.15;;
67053;SDS011;53960;51.826;5.850;2024-01-10T08:09:42;10.33;;;4.07;;
67053;SDS011;53960;51.826;5.850;2024-01-10T08:12:08;11.20;;;4.50;;
67053;SDS011;53960;51.826;5.850;2024-01-10T08:14:33;12.53;;;4.43;;
67053;SDS011;53960;51.826;5.850;2024-01-10T08:16:58;10.10;;;4.13;;
67053;SDS011;53960;51.826;5.850;2024-01-10T08:19:25;10.90;;;3.22;;
67053;SDS011;53960;51.826;5.850;2024-01-10T08:21:52;14.35;;;4.50;;
67053;SDS011;53960;51.826;5.850;2024-01-10T08:24:18;11.73;;;4.15;;
67053;SDS011;53960;51.826;5.850;2024-01-10T08:26:44;12.57;;;4.70;;
67053;SDS011;53960;51.826;5.850;2024-01-10T08:29:09;9.00;;;3.57;;
67053;SDS011;53960;51.826;5.850;2024-01-10T08:31:34;12.65;;;4.72;;
67053;SDS011;53960;51.826;5.850;2024-01-10T08:34:00;10.70;;;4.30;;
67053;SDS011;53960;51.826;5.850;2024-01-10T08:36:25;10.80;;;4.40;;
67053;SDS011;53960;51.826;5.850;2024-01-10T08:38:50;11.57;;;4.60;;
67053;SDS011;53960;51.826;5.850;2024-01-10T08:41:16;7.93;;;3.05;;
67053;SDS011;53960;51.826;5.850;2024-01-10T08:43:42;11.60;;;4.40;;
67053;SDS011;53960;51.826;5.850;2024-01-10T08:46:08;12.70;;;4.60;;
67053;SDS011;53960;51.826;5.850;2024-01-10T08:48:34;12.38;;;4.97;;
67053;SDS011;53960;51.826;5.850;2024-01-10T08:51:01;13.45;;;4.68;;
67053;SDS011;53960;51.826;5.850;2024-01-10T08:53:26;12.73;;;5.00;;
67053;SDS011;53960;51.826;5.850;2024-01-10T08:55:52;13.00;;;4.23;;
67053;SDS011;53960;51.826;5.850;2024-01-10T08:58:17;13.87;;;5.70;;
67053;SDS011;53960;51.826;5.850;2024-01-10T09:00:43;14.48;;;5.13;;
67053;SDS011;53960;51.826;5.850;2024-01-10T09:03:08;13.33;;;4.60;;
67053;SDS011;53960;51.826;5.850;2024-01-10T09:05:34;11.90;;;4.00;;
67053;SDS011;53960;51.826;5.850;2024-01-10T09:07:59;14.83;;;5.07;;
67053;SDS011;53960;51.826;5.850;2024-01-10T09:10:25;14.35;;;5.57;;
67053;SDS011;53960;51.826;5.850;2024-01-10T09:12:53;15.75;;;5.72;;
67053;SDS011;53960;51.826;5.850;2024-01-10T09:15:19;14.23;;;5.17;;
67053;SDS011;53960;51.826;5.850;2024-01-10T09:17:44;16.13;;;5.57;;
67053;SDS011;53960;51.826;5.850;2024-01-10T09:20:10;14.55;;;5.55;;
67053;SDS011;53960;51.826;5.850;2024-01-10T09:22:37;13.95;;;5.72;;
67053;SDS011;53960;51.826;5.850;2024-01-10T09:25:06;12.38;;;4.72;;
67053;SDS011;53960;51.826;5.850;2024-01-10T09:27:32;13.60;;;5.10;;
67053;SDS011;53960;51.826;5.850;2024-01-10T09:30:01;14.10;;;5.15;;
67053;SDS011;53960;51.826;5.850;2024-01-10T09:32:27;13.50;;;6.20;;
67053;SDS011;53960;51.826;5.850;2024-01-10T09:34:54;12.73;;;5.07;;
67053;SDS011;53960;51.826;5.850;2024-01-10T09:37:19;13.43;;;5.13;;
67053;SDS011;53960;51.826;5.850;2024-01-10T09:39:45;16.97;;;5.97;;
67053;SDS011;53960;51.826;5.850;2024-01-10T09:42:10;14.03;;;5.33;;
67053;SDS011;53960;51.826;5.850;2024-01-10T09:44:35;15.17;;;6.97;;
67053;SDS011;53960;51.826;5.850;2024-01-10T09:47:00;16.47;;;6.43;;
67053;SDS011;53960;51.826;5.850;2024-01-10T09:49:27;13.35;;;5.15;;
67053;SDS011;53960;51.826;5.850;2024-01-10T09:51:57;14.30;;;5.33;;
67053;SDS011;53960;51.826;5.850;2024-01-10T09:54:26;11.80;;;5.22;;
67053;SDS011;53960;51.826;5.850;2024-01-10T09:56:54;16.50;;;6.70;;
67053;SDS011;53960;51.826;5.850;2024-01-10T09:59:20;15.48;;;5.20;;
67053;SDS011;53960;51.826;5.850;2024-01-10T10:01:46;14.17;;;5.10;;
67053;SDS011;53960;51.826;5.850;2024-01-10T10:04:12;12.60;;;5.40;;
67053;SDS011;53960;51.826;5.850;2024-01-10T10:06:37;13.70;;;5.35;;
67053;SDS011;53960;51.826;5.850;2024-01-10T10:09:03;14.83;;;5.63;;
67053;SDS011;53960;51.826;5.850;2024-01-10T10:11:29;13.60;;;5.50;;
67053;SDS011;53960;51.826;5.850;2024-01-10T10:13:54;14.03;;;5.40;;
67053;SDS011;53960;51.826;5.850;2024-01-10T10:16:24;16.97;;;5.93;;
67053;SDS011;53960;51.826;5.850;2024-01-10T10:18:53;13.98;;;5.65;;
67053;SDS011;53960;51.826;5.850;2024-01-10T10:21:23;13.80;;;5.47;;
67053;SDS011;53960;51.826;5.850;2024-01-10T10:24:00;16.33;;;6.32;;
67053;SDS011;53960;51.826;5.850;2024-01-10T10:26:27;14.65;;;5.55;;
67053;SDS011;53960;51.826;5.850;2024-01-10T10:28:54;15.50;;;5.30;;
67053;SDS011;53960;51.826;5.850;2024-01-10T10:31:20;14.95;;;5.97;;
67053;SDS011;53960;51.826;5.850;2024-01-10T10:33:46;13.10;;;5.40;;
67053;SDS011;53960;51.826;5.850;2024-01-10T10:36:16;13.43;;;4.78;;
67053;SDS011;53960;51.826;5.850;2024-01-10T10:38:41;13.23;;;5.03;;
67053;SDS011;53960;51.826;5.850;2024-01-10T10:41:07;13.93;;;5.23;;
67053;SDS011;53960;51.826;5.850;2024-01-10T10:43:36;13.57;;;5.32;;
67053;SDS011;53960;51.826;5.850;2024-01-10T10:46:03;17.40;;;6.18;;
67053;SDS011;53960;51.826;5.850;2024-01-10T10:48:34;15.07;;;5.97;;
67053;SDS011;53960;51.826;5.850;2024-01-10T10:51:03;13.50;;;4.93;;
67053;SDS011;53960;51.826;5.850;2024-01-10T10:53:31;15.68;;;5.95;;
67053;SDS011;53960;51.826;5.850;2024-01-10T10:55:58;14.98;;;4.93;;
67053;SDS011;53960;51.826;5.850;2024-01-10T10:58:25;15.48;;;6.20;;
67053;SDS011;53960;51.826;5.850;2024-01-10T11:00:50;13.93;;;5.53;;
67053;SDS011;53960;51.826;5.850;2024-01-10T11:03:17;14.63;;;5.85;;
67053;SDS011;53960;51.826;5.850;2024-01-10T11:05:43;18.08;;;5.30;;
67053;SDS011;53960;51.826;5.850;2024-01-10T11:08:11;12.27;;;5.30;;
67053;SDS011;53960;51.826;5.850;2024-01-10T11:10:39;14.90;;;6.15;;
67053;SDS011;53960;51.826;5.850;2024-01-10T11:13:25;15.13;;;5.72;;
67053;SDS011;53960;51.826;5.850;2024-01-10T11:24:35;14.25;;;4.85;;
67053;SDS011;53960;51.826;5.850;2024-01-10T11:27:07;16.00;;;5.78;;
67053;SDS011;53960;51.826;5.850;2024-01-10T11:29:39;16.08;;;6.13;;
67053;SDS011;53960;51.826;5.850;2024-01-10T11:32:06;12.87;;;5.50;;
67053;SDS011;53960;51.826;5.850;2024-01-10T11:34:34;14.55;;;5.97;;
67053;SDS011;53960;51.826;5.850;2024-01-10T11:37:10;13.05;;;5.38;;
67053;SDS011;53960;51.826;5.850;2024-01-10T11:39:36;14.25;;;5.18;;
67053;SDS011;53960;51.826;5.850;2024-01-10T11:42:02;12.90;;;5.17;;
67053;SDS011;53960;51.826;5.850;2024-01-10T11:44:28;13.65;;;5.63;;
67053;SDS011;53960;51.826;5.850;2024-01-10T11:46:54;13.67;;;5.27;;
67053;SDS011;53960;51.826;5.850;2024-01-10T11:49:21;15.52;;;5.18;;
67053;SDS011;53960;51.826;5.850;2024-01-10T11:51:48;16.10;;;6.25;;
67053;SDS011;53960;51.826;5.850;2024-01-10T11:59:42;15.73;;;5.73;;
67053;SDS011;53960;51.826;5.850;2024-01-10T12:02:09;12.77;;;5.15;;
67053;SDS011;53960;51.826;5.850;2024-01-10T12:04:35;15.00;;;5.80;;
67053;SDS011;53960;51.826;5.850;2024-01-10T12:07:04;16.13;;;6.07;;
67053;SDS011;53960;51.826;5.850;2024-01-10T12:09:31;13.73;;;5.90;;
67053;SDS011;53960;51.826;5.850;2024-01-10T12:11:57;15.27;;;6.07;;
67053;SDS011;53960;51.826;5.850;2024-01-10T12:14:23;15.77;;;5.57;;
67053;SDS011;53960;51.826;5.850;2024-01-10T12:16:50;13.07;;;5.03;;
67053;SDS011;53960;51.826;5.850;2024-01-10T12:19:16;15.52;;;5.60;;
67053;SDS011;53960;51.826;5.850;2024-01-10T12:21:41;16.63;;;5.70;;
67053;SDS011;53960;51.826;5.850;2024-01-10T12:24:07;15.00;;;6.10;;
67053;SDS011;53960;51.826;5.850;2024-01-10T12:26:32;15.40;;;5.88;;
67053;SDS011;53960;51.826;5.850;2024-01-10T12:28:58;18.77;;;6.03;;
67053;SDS011;53960;51.826;5.850;2024-01-10T12:31:28;14.30;;;5.68;;
67053;SDS011;53960;51.826;5.850;2024-01-10T12:33:55;14.05;;;6.07;;
67053;SDS011;53960;51.826;5.850;2024-01-10T12:36:20;14.93;;;6.30;;
67053;SDS011;53960;51.826;5.850;2024-01-10T12:38:46;18.63;;;6.35;;
67053;SDS011;53960;51.826;5.850;2024-01-10T12:41:12;14.43;;;5.87;;
67053;SDS011;53960;51.826;5.850;2024-01-10T12:43:39;15.40;;;5.90;;
67053;SDS011;53960;51.826;5.850;2024-01-10T12:46:08;14.13;;;5.53;;
67053;SDS011;53960;51.826;5.850;2024-01-10T12:48:38;13.48;;;5.93;;
67053;SDS011;53960;51.826;5.850;2024-01-10T12:51:09;13.60;;;5.43;;
67053;SDS011;53960;51.826;5.850;2024-01-10T12:53:39;15.98;;;6.13;;
67053;SDS011;53960;51.826;5.850;2024-01-10T12:56:07;16.77;;;6.50;;
67053;SDS011;53960;51.826;5.850;2024-01-10T12:58:33;13.90;;;5.43;;
67053;SDS011;53960;51.826;5.850;2024-01-10T13:01:00;18.23;;;6.50;;
67053;SDS011;53960;51.826;5.850;2024-01-10T13:03:26;14.20;;;6.18;;
67053;SDS011;53960;51.826;5.850;2024-01-10T13:05:52;15.37;;;5.67;;
67053;SDS011;53960;51.826;5.850;2024-01-10T13:08:17;14.53;;;5.80;;
67053;SDS011;53960;51.826;5.850;2024-01-10T13:10:44;16.85;;;5.80;;
67053;SDS011;53960;51.826;5.850;2024-01-10T13:13:10;16.42;;;7.25;;
67053;SDS011;53960;51.826;5.850;2024-01-10T13:15:36;15.93;;;6.53;;
67053;SDS011;53960;51.826;5.850;2024-01-10T13:18:01;15.53;;;6.13;;
67053;SDS011;53960;51.826;5.850;2024-01-10T13:20:27;17.37;;;6.10;;
67053;SDS011;53960;51.826;5.850;2024-01-10T13:22:52;16.85;;;6.63;;
67053;SDS011;53960;51.826;5.850;2024-01-10T13:25:18;15.33;;;6.30;;
67053;SDS011;53960;51.826;5.850;2024-01-10T13:27:47;18.13;;;6.75;;
67053;SDS011;53960;51.826;5.850;2024-01-10T13:30:13;18.50;;;6.47;;
67053;SDS011;53960;51.826;5.850;2024-01-10T13:32:38;16.03;;;6.27;;
67053;SDS011;53960;51.826;5.850;2024-01-10T13:35:04;16.83;;;6.30;;
67053;SDS011;53960;51.826;5.850;2024-01-10T13:37:29;16.93;;;6.63;;
67053;SDS011;53960;51.826;5.850;2024-01-10T13:39:56;15.77;;;6.63;;
67053;SDS011;53960;51.826;5.850;2024-01-10T13:42:21;18.83;;;6.93;;
67053;SDS011;53960;51.826;5.850;2024-01-10T13:44:48;16.67;;;6.28;;
67053;SDS011;53960;51.826;5.850;2024-01-10T13:47:14;18.13;;;6.27;;
67053;SDS011;53960;51.826;5.850;2024-01-10T13:49:39;18.40;;;6.70;;
67053;SDS011;53960;51.826;5.850;2024-01-10T13:52:05;18.00;;;7.32;;
67053;SDS011;53960;51.826;5.850;2024-01-10T13:54:31;16.47;;;6.57;;
67053;SDS011;53960;51.826;5.850;2024-01-10T13:56:56;15.43;;;6.30;;
67053;SDS011;53960;51.826;5.850;2024-01-10T13:59:22;19.85;;;6.90;;
67053;SDS011;53960;51.826;5.850;2024-01-10T14:01:47;16.83;;;6.00;;
67053;SDS011;53960;51.826;5.850;2024-01-10T14:04:13;13.90;;;6.20;;
67053;SDS011;53960;51.826;5.850;2024-01-10T14:06:38;17.03;;;5.83;;
67053;SDS011;53960;51.826;5.850;2024-01-10T14:09:03;18.77;;;6.80;;
67053;SDS011;53960;51.826;5.850;2024-01-10T14:11:28;12.85;;;5.68;;
67053;SDS011;53960;51.826;5.850;2024-01-10T14:13:54;16.47;;;5.70;;
67053;SDS011;53960;51.826;5.850;2024-01-10T14:16:19;16.20;;;5.57;;
67053;SDS011;53960;51.826;5.850;2024-01-10T14:18:45;14.97;;;6.47;;
67053;SDS011;53960;51.826;5.850;2024-01-10T14:21:12;15.88;;;5.95;;
67053;SDS011;53960;51.826;5.850;2024-01-10T14:23:37;16.73;;;5.63;;
67053;SDS011;53960;51.826;5.850;2024-01-10T14:26:03;18.93;;;6.57;;
67053;SDS011;53960;51.826;5.850;2024-01-10T14:28:30;15.77;;;6.70;;
67053;SDS011;53960;51.826;5.850;2024-01-10T14:30:56;15.33;;;6.10;;
67053;SDS011;53960;51.826;5.850;2024-01-10T14:33:21;17.05;;;6.65;;
67053;SDS011;53960;51.826;5.850;2024-01-10T14:35:46;14.90;;;5.50;;
67053;SDS011;53960;51.826;5.850;2024-01-10T14:38:12;17.43;;;6.63;;
67053;SDS011;53960;51.826;5.850;2024-01-10T14:40:38;15.50;;;6.43;;
67053;SDS011;53960;51.826;5.850;2024-01-10T14:43:03;16.60;;;6.43;;
67053;SDS011;53960;51.826;5.850;2024-01-10T14:45:28;17.80;;;6.67;;
67053;SDS011;53960;51.826;5.850;2024-01-10T14:47:54;19.70;;;6.47;;